sensor_id;sensor_type;location;lat;lon;timestamp;pressure;altitude;pressure_sealevel;temperature;humidity
11085;BME280;5596;46.826;8.650;2023-03-14T00:15:34;61776.25;;;-141.59;100.00
11085;BME280;5596;46.826;8.650;2023-03-14T00:18:02;61776.25;;;-141.59;100.00
11085;BME280;5596;46.826;8.650;2023-03-14T00:20:29;61776.25;;;-141.59;100.00
11085;BME280;5596;46.826;8.650;2023-03-14T00:22:56;61776.25;;;-141.59;100.00
11085;BME280;5596;46.826;8.650;2023-03-14T00:25:23;61776.25;;;-141.59;100.00
11085;BME280;5596;46.826;8.650;2023-03-14T00:27:50;61776.25;;;-141.59;100.00
11085;BME280;5596;46.826;8.650;2023-03-14T00:30:18;61776.25;;;-141.59;100.00
11085;BME280;5596;46.826;8.650;2023-03-14T00:32:47;61776.25;;;-141.59;100.00
11085;BME280;5596;46.826;8.650;2023-03-14T00:35:14;61776.25;;;-141.59;100.00
11085;BME280;5596;46.826;8.650;2023-03-14T00:37:42;61776.25;;;-141.59;100.00
11085;BME280;5596;46.826;8.650;2023-03-14T00:40:10;61776.25;;;-141.59;100.00
11085;BME280;5596;46.826;8.650;2023-03-14T00:42:37;61776.25;;;-141.59;100.00
11085;BME280;5596;46.826;8.650;2023-03-14T00:45:05;61776.25;;;-141.59;100.00
11085;BME280;5596;46.826;8.650;2023-03-14T00:47:33;61776.25;;;-141.59;100.00
11085;BME280;5596;46.826;8.650;2023-03-14T00:50:01;61776.25;;;-141.59;100.00
11085;BME280;5596;46.826;8.650;2023-03-14T00:52:28;61776.25;;;-141.59;100.00
11085;BME280;5596;46.826;8.650;2023-03-14T00:54:55;61776.25;;;-141.59;100.00
11085;BME280;5596;46.826;8.650;2023-03-14T00:57:22;61776.25;;;-141.59;100.00
11085;BME280;5596;46.826;8.650;2023-03-14T00:59:51;61776.25;;;-141.59;100.00
11085;BME280;5596;46.826;8.650;2023-03-14T01:02:18;61776.25;;;-141.59;100.00
11085;BME280;5596;46.826;8.650;2023-03-14T01:04:47;61776.25;;;-141.59;100.00
11085;BME280;5596;46.826;8.650;2023-03-14T01:07:16;61776.25;;;-141.59;100.00
11085;BME280;5596;46.826;8.650;2023-03-14T01:09:43;61776.25;;;-141.59;100.00
11085;BME280;5596;46.826;8.650;2023-03-14T01:12:10;61776.25;;;-141.59;100.00
11085;BME280;5596;46.826;8.650;2023-03-14T01:14:37;61776.25;;;-141.59;100.00
11085;BME280;5596;46.826;8.650;2023-03-14T01:17:04;61776.25;;;-141.59;100.00
11085;BME280;5596;46.826;8.650;2023-03-14T01:19:31;61776.25;;;-141.59;100.00
11085;BME280;5596;46.826;8.650;2023-03-14T01:21:59;61776.25;;;-141.59;100.00
11085;BME280;5596;46.826;8.650;2023-03-14T01:24:27;61776.25;;;-141.59;100.00
11085;BME280;5596;46.826;8.650;2023-03-14T01:26:54;61776.25;;;-141.59;100.00
11085;BME280;5596;46.826;8.650;2023-03-14T01:29:23;61776.25;;;-141.59;100.00
11085;BME280;5596;46.826;8.650;2023-03-14T01:31:50;61776.25;;;-141.59;100.00
11085;BME280;5596;46.826;8.650;2023-03-14T01:34:20;61776.25;;;-141.59;100.00
11085;BME280;5596;46.826;8.650;2023-03-14T01:36:48;61776.25;;;-141.59;100.00
11085;BME280;5596;46.826;8.650;2023-03-14T01:39:15;61776.25;;;-141.59;100.00
11085;BME280;5596;46.826;8.650;2023-03-14T01:41:44;61776.25;;;-141.59;100.00
11085;BME280;5596;46.826;8.650;2023-03-14T01:44:12;61776.25;;;-141.59;100.00
11085;BME280;5596;46.826;8.650;2023-03-14T01:46:40;61776.25;;;-141.59;100.00
11085;BME280;5596;46.826;8.650;2023-03-14T01:49:19;61776.25;;;-141.59;100.00
11085;BME280;5596;46.826;8.650;2023-03-14T01:51:57;61776.25;;;-141.59;100.00
11085;BME280;5596;46.826;8.650;2023-03-14T01:54:29;61776.25;;;-141.59;100.00
11085;BME280;5596;46.826;8.650;2023-03-14T01:57:05;61776.25;;;-141.59;100.00
11085;BME280;5596;46.826;8.650;2023-03-14T01:59:34;61776.25;;;-141.59;100.00
11085;BME280;5596;46.826;8.650;2023-03-14T02:02:05;61776.25;;;-141.59;100.00
11085;BME280;5596;46.826;8.650;2023-03-14T02:04:34;61776.25;;;-141.59;100.00
11085;BME280;5596;46.826;8.650;2023-03-14T02:07:07;61776.25;;;-141.59;100.00
11085;BME280;5596;46.826;8.650;2023-03-14T02:09:39;61776.25;;;-141.59;100.00
11085;BME280;5596;46.826;8.650;2023-03-14T02:12:14;61776.25;;;-141.59;100.00
11085;BME280;5596;46.826;8.650;2023-03-14T02:14:49;61776.25;;;-141.59;100.00
11085;BME280;5596;46.826;8.650;2023-03-14T02:17:40;61776.25;;;-141.59;100.00
11085;BME280;5596;46.826;8.650;2023-03-14T02:20:31;61776.25;;;-141.59;100.00
11085;BME280;5596;46.826;8.650;2023-03-14T02:23:00;61776.25;;;-141.59;100.00
11085;BME280;5596;46.826;8.650;2023-03-14T02:25:38;61776.25;;;-141.59;100.00
11085;BME280;5596;46.826;8.650;2023-03-14T02:28:08;61776.25;;;-141.59;100.00
11085;BME280;5596;46.826;8.650;2023-03-14T02:30:37;61776.25;;;-141.59;100.00
11085;BME280;5596;46.826;8.650;2023-03-14T02:33:08;61776.25;;;-141.59;100.00
11085;BME280;5596;46.826;8.650;2023-03-14T02:35:40;61776.25;;;-141.59;100.00
11085;BME280;5596;46.826;8.650;2023-03-14T02:38:13;61776.25;;;-141.59;100.00
11085;BME280;5596;46.826;8.650;2023-03-14T02:40:45;61776.25;;;-141.59;100.00
11085;BME280;5596;46.826;8.650;2023-03-14T02:43:14;61776.25;;;-141.59;100.00
11085;BME280;5596;46.826;8.650;2023-03-14T02:45:48;61776.25;;;-141.59;100.00
11085;BME280;5596;46.826;8.650;2023-03-14T02:48:21;61776.25;;;-141.59;100.00
11085;BME280;5596;46.826;8.650;2023-03-14T02:50:52;61776.25;;;-141.59;100.00
11085;BME280;5596;46.826;8.650;2023-03-14T02:53:24;61776.25;;;-141.59;100.00
11085;BME280;5596;46.826;8.650;2023-03-14T02:55:57;61776.25;;;-141.59;100.00
11085;BME280;5596;46.826;8.650;2023-03-14T02:58:28;61776.25;;;-141.59;100.00
11085;BME280;5596;46.826;8.650;2023-03-14T03:01:05;61776.25;;;-141.59;100.00
11085;BME280;5596;46.826;8.650;2023-03-14T03:03:32;61776.25;;;-141.59;100.00
11085;BME280;5596;46.826;8.650;2023-03-14T03:05:59;61776.25;;;-141.59;100.00
11085;BME280;5596;46.826;8.650;2023-03-14T03:08:27;61776.25;;;-141.59;100.00
11085;BME280;5596;46.826;8.650;2023-03-14T03:10:57;61776.25;;;-141.59;100.00
11085;BME280;5596;46.826;8.650;2023-03-14T03:13:28;61776.25;;;-141.59;100.00
11085;BME280;5596;46.826;8.650;2023-03-14T03:15:56;61776.25;;;-141.59;100.00
11085;BME280;5596;46.826;8.650;2023-03-14T03:18:23;61776.25;;;-141.59;100.00
11085;BME280;5596;46.826;8.650;2023-03-14T03:20:50;61776.25;;;-141.59;100.00
11085;BME280;5596;46.826;8.650;2023-03-14T03:23:17;61776.25;;;-141.59;100.00
11085;BME280;5596;46.826;8.650;2023-03-14T03:25:48;61776.25;;;-141.59;100.00
11085;BME280;5596;46.826;8.650;2023-03-14T03:28:16;61776.25;;;-141.59;100.00
11085;BME280;5596;46.826;8.650;2023-03-14T03:30:44;61776.25;;;-141.59;100.00
11085;BME280;5596;46.826;8.650;2023-03-14T03:33:12;61776.25;;;-141.59;100.00
11085;BME280;5596;46.826;8.650;2023-03-14T03:35:44;61776.25;;;-141.59;100.00
11085;BME280;5596;46.826;8.650;2023-03-14T03:38:11;61776.25;;;-141.59;100.00
11085;BME280;5596;46.826;8.650;2023-03-14T03:40:39;61776.25;;;-141.59;100.00
11085;BME280;5596;46.826;8.650;2023-03-14T03:43:07;61776.25;;;-141.59;100.00
11085;BME280;5596;46.826;8.650;2023-03-14T03:45:37;61776.25;;;-141.59;100.00
11085;BME280;5596;46.826;8.650;2023-03-14T03:48:07;61776.25;;;-141.59;100.00
11085;BME280;5596;46.826;8.650;2023-03-14T03:50:34;61776.25;;;-141.59;100.00
11085;BME280;5596;46.826;8.650;2023-03-14T03:53:03;61776.25;;;-141.59;100.00
11085;BME280;5596;46.826;8.650;2023-03-14T03:55:31;61776.25;;;-141.59;100.00
11085;BME280;5596;46.826;8.650;2023-03-14T03:57:58;61776.25;;;-141.59;100.00
11085;BME280;5596;46.826;8.650;2023-03-14T04:00:40;94838.81;;;8.58;100.00
11085;BME280;5596;46.826;8.650;2023-03-14T04:03:07;94840.09;;;8.50;100.00
11085;BME280;5596;46.826;8.650;2023-03-14T04:05:34;94837.91;;;8.47;100.00
11085;BME280;5596;46.826;8.650;2023-03-14T04:08:07;94829.97;;;8.35;100.00
11085;BME280;5596;46.826;8.650;2023-03-14T04:10:34;94828.22;;;8.24;100.00
11085;BME280;5596;46.826;8.650;2023-03-14T04:13:06;94817.41;;;8.19;100.00
11085;BME280;5596;46.826;8.650;2023-03-14T04:15:34;94823.78;;;8.13;100.00
11085;BME280;5596;46.826;8.650;2023-03-14T04:18:09;94827.75;;;8.06;100.00
11085;BME280;5596;46.826;8.650;2023-03-14T04:20:36;94829.63;;;8.05;100.00
11085;BME280;5596;46.826;8.650;2023-03-14T04:23:04;94824.72;;;8.02;100.00
11085;BME280;5596;46.826;8.650;2023-03-14T04:25:31;94820.94;;;7.98;100.00
11085;BME280;5596;46.826;8.650;2023-03-14T04:28:02;94820.66;;;7.99;100.00
11085;BME280;5596;46.826;8.650;2023-03-14T04:30:31;94813.38;;;7.95;100.00
11085;BME280;5596;46.826;8.650;2023-03-14T04:33:02;94798.88;;;7.96;100.00
11085;BME280;5596;46.826;8.650;2023-03-14T04:35:33;94806.31;;;7.89;100.00
11085;BME280;5596;46.826;8.650;2023-03-14T04:38:06;94804.72;;;7.93;100.00
11085;BME280;5596;46.826;8.650;2023-03-14T04:40:36;94800.97;;;7.94;100.00
11085;BME280;5596;46.826;8.650;2023-03-14T04:43:05;94788.94;;;7.96;100.00
11085;BME280;5596;46.826;8.650;2023-03-14T04:45:33;94786.97;;;7.92;100.00
11085;BME280;5596;46.826;8.650;2023-03-14T04:48:03;94779.19;;;7.90;100.00
11085;BME280;5596;46.826;8.650;2023-03-14T04:50:33;94764.38;;;7.88;100.00
11085;BME280;5596;46.826;8.650;2023-03-14T04:53:00;94770.31;;;7.90;100.00
11085;BME280;5596;46.826;8.650;2023-03-14T04:55:28;94766.03;;;7.94;100.00
11085;BME280;5596;46.826;8.650;2023-03-14T04:57:55;94744.19;;;7.85;100.00
11085;BME280;5596;46.826;8.650;2023-03-14T05:00:24;94735.56;;;7.83;100.00
11085;BME280;5596;46.826;8.650;2023-03-14T05:03:26;94717.63;;;7.89;100.00
11085;BME280;5596;46.826;8.650;2023-03-14T05:06:16;94716.81;;;7.88;100.00
11085;BME280;5596;46.826;8.650;2023-03-14T05:08:43;94691.75;;;7.83;100.00
11085;BME280;5596;46.826;8.650;2023-03-14T05:11:37;94705.38;;;7.98;100.00
11085;BME280;5596;46.826;8.650;2023-03-14T05:14:24;94716.13;;;7.98;100.00
11085;BME280;5596;46.826;8.650;2023-03-14T05:17:17;94714.53;;;8.02;100.00
11085;BME280;5596;46.826;8.650;2023-03-14T05:19:57;94724.22;;;8.03;100.00
11085;BME280;5596;46.826;8.650;2023-03-14T05:22:44;94705.16;;;8.05;100.00
11085;BME280;5596;46.826;8.650;2023-03-14T05:25:38;94709.63;;;7.94;100.00
11085;BME280;5596;46.826;8.650;2023-03-14T05:28:15;94705.53;;;7.91;100.00
11085;BME280;5596;46.826;8.650;2023-03-14T05:30:53;94707.16;;;7.92;100.00
11085;BME280;5596;46.826;8.650;2023-03-14T05:33:39;94704.41;;;7.82;100.00
11085;BME280;5596;46.826;8.650;2023-03-14T05:36:26;94697.44;;;7.86;100.00
11085;BME280;5596;46.826;8.650;2023-03-14T05:39:11;94681.81;;;7.83;100.00
11085;BME280;5596;46.826;8.650;2023-03-14T05:41:56;94689.63;;;7.85;100.00
11085;BME280;5596;46.826;8.650;2023-03-14T05:44:44;94675.94;;;7.86;100.00
11085;BME280;5596;46.826;8.650;2023-03-14T05:47:22;94681.66;;;7.90;100.00
11085;BME280;5596;46.826;8.650;2023-03-14T05:50:12;94676.00;;;7.91;100.00
11085;BME280;5596;46.826;8.650;2023-03-14T05:52:54;94674.41;;;7.90;100.00
11085;BME280;5596;46.826;8.650;2023-03-14T05:55:38;94666.88;;;7.92;100.00
11085;BME280;5596;46.826;8.650;2023-03-14T05:58:19;94659.59;;;7.88;100.00
11085;BME280;5596;46.826;8.650;2023-03-14T06:00:49;94659.59;;;7.88;100.00
11085;BME280;5596;46.826;8.650;2023-03-14T06:03:29;94659.63;;;7.93;100.00
11085;BME280;5596;46.826;8.650;2023-03-14T06:05:57;94662.06;;;7.94;100.00
11085;BME280;5596;46.826;8.650;2023-03-14T06:08:24;94653.66;;;7.86;100.00
11085;BME280;5596;46.826;8.650;2023-03-14T06:10:52;94653.16;;;7.89;100.00
11085;BME280;5596;46.826;8.650;2023-03-14T06:13:25;94639.59;;;7.79;100.00
11085;BME280;5596;46.826;8.650;2023-03-14T06:15:52;94636.31;;;7.72;100.00
11085;BME280;5596;46.826;8.650;2023-03-14T06:18:19;94627.69;;;7.70;100.00
11085;BME280;5596;46.826;8.650;2023-03-14T06:20:47;94624.44;;;7.68;100.00
11085;BME280;5596;46.826;8.650;2023-03-14T06:23:22;94622.81;;;7.67;100.00
11085;BME280;5596;46.826;8.650;2023-03-14T06:25:50;94620.09;;;7.62;100.00
11085;BME280;5596;46.826;8.650;2023-03-14T06:28:18;94612.53;;;7.58;100.00
11085;BME280;5596;46.826;8.650;2023-03-14T06:30:45;94617.88;;;7.53;100.00
11085;BME280;5596;46.826;8.650;2023-03-14T06:33:14;94606.56;;;7.51;100.00
11085;BME280;5596;46.826;8.650;2023-03-14T06:35:41;94597.44;;;7.52;100.00
11085;BME280;5596;46.826;8.650;2023-03-14T06:38:08;94601.25;;;7.56;100.00
11085;BME280;5596;46.826;8.650;2023-03-14T06:40:35;94617.41;;;7.62;100.00
11085;BME280;5596;46.826;8.650;2023-03-14T06:43:10;94628.13;;;7.56;100.00
11085;BME280;5596;46.826;8.650;2023-03-14T06:45:40;94629.72;;;7.57;100.00
11085;BME280;5596;46.826;8.650;2023-03-14T06:48:07;94619.50;;;7.54;100.00
11085;BME280;5596;46.826;8.650;2023-03-14T06:50:39;94627.38;;;7.66;100.00
11085;BME280;5596;46.826;8.650;2023-03-14T06:53:06;94630.38;;;7.70;100.00
11085;BME280;5596;46.826;8.650;2023-03-14T06:55:36;94633.66;;;7.77;100.00
11085;BME280;5596;46.826;8.650;2023-03-14T06:58:03;94654.88;;;7.73;100.00
11085;BME280;5596;46.826;8.650;2023-03-14T07:00:36;94650.09;;;7.80;100.00
11085;BME280;5596;46.826;8.650;2023-03-14T07:03:04;94656.41;;;7.91;100.00
11085;BME280;5596;46.826;8.650;2023-03-14T07:05:37;94656.31;;;7.86;100.00
11085;BME280;5596;46.826;8.650;2023-03-14T07:08:06;94658.19;;;7.85;100.00
11085;BME280;5596;46.826;8.650;2023-03-14T07:10:34;94656.53;;;7.79;100.00
11085;BME280;5596;46.826;8.650;2023-03-14T07:13:01;94651.44;;;7.83;100.00
11085;BME280;5596;46.826;8.650;2023-03-14T07:15:33;94666.88;;;7.92;100.00
11085;BME280;5596;46.826;8.650;2023-03-14T07:18:05;94662.06;;;7.94;100.00
11085;BME280;5596;46.826;8.650;2023-03-14T07:20:33;94664.50;;;7.96;100.00
11085;BME280;5596;46.826;8.650;2023-03-14T07:23:01;94655.16;;;8.04;100.00
11085;BME280;5596;46.826;8.650;2023-03-14T07:25:54;94661.66;;;8.08;100.00
11085;BME280;5596;46.826;8.650;2023-03-14T07:28:24;94641.69;;;7.98;100.00
11085;BME280;5596;46.826;8.650;2023-03-14T07:31:14;94643.38;;;8.10;100.00
11085;BME280;5596;46.826;8.650;2023-03-14T07:33:43;94633.88;;;7.97;100.00
11085;BME280;5596;46.826;8.650;2023-03-14T07:36:11;94635.53;;;8.03;100.00
11085;BME280;5596;46.826;8.650;2023-03-14T07:38:41;94647.94;;;8.09;100.00
11085;BME280;5596;46.826;8.650;2023-03-14T07:41:32;94644.03;;;8.22;100.00
11085;BME280;5596;46.826;8.650;2023-03-14T07:44:36;94649.78;;;8.35;100.00
11085;BME280;5596;46.826;8.650;2023-03-14T07:47:03;94651.97;;;8.39;100.00
11085;BME280;5596;46.826;8.650;2023-03-14T07:49:32;94659.53;;;8.42;100.00
11085;BME280;5596;46.826;8.650;2023-03-14T07:51:59;94658.25;;;8.49;100.00
11085;BME280;5596;46.826;8.650;2023-03-14T07:54:26;94663.16;;;8.62;100.00
11085;BME280;5596;46.826;8.650;2023-03-14T07:56:54;94672.88;;;8.68;100.00
11085;BME280;5596;46.826;8.650;2023-03-14T07:59:21;94682.59;;;8.69;100.00
11085;BME280;5596;46.826;8.650;2023-03-14T08:01:48;94668.59;;;8.67;100.00
11085;BME280;5596;46.826;8.650;2023-03-14T08:04:15;94676.72;;;8.78;100.00
11085;BME280;5596;46.826;8.650;2023-03-14T08:06:44;94675.41;;;8.80;100.00
11085;BME280;5596;46.826;8.650;2023-03-14T08:09:11;94692.97;;;8.93;100.00
11085;BME280;5596;46.826;8.650;2023-03-14T08:11:38;94689.78;;;9.01;100.00
11085;BME280;5596;46.826;8.650;2023-03-14T08:14:05;94679.31;;;9.04;100.00
11085;BME280;5596;46.826;8.650;2023-03-14T08:16:32;94696.59;;;9.14;100.00
11085;BME280;5596;46.826;8.650;2023-03-14T08:18:59;94694.97;;;9.13;100.00
11085;BME280;5596;46.826;8.650;2023-03-14T08:21:28;94691.19;;;9.14;100.00
11085;BME280;5596;46.826;8.650;2023-03-14T08:23:56;94670.16;;;9.10;100.00
11085;BME280;5596;46.826;8.650;2023-03-14T08:26:23;94699.28;;;9.14;100.00
11085;BME280;5596;46.826;8.650;2023-03-14T08:28:50;94689.56;;;9.13;100.00
11085;BME280;5596;46.826;8.650;2023-03-14T08:31:18;94694.97;;;9.13;100.00
11085;BME280;5596;46.826;8.650;2023-03-14T08:33:45;94707.91;;;9.16;100.00
11085;BME280;5596;46.826;8.650;2023-03-14T08:36:12;94700.34;;;9.13;100.00
11085;BME280;5596;46.826;8.650;2023-03-14T08:38:39;94704.97;;;9.17;100.00
11085;BME280;5596;46.826;8.650;2023-03-14T08:41:10;94712.78;;;9.24;100.00
11085;BME280;5596;46.826;8.650;2023-03-14T08:43:37;94702.28;;;9.22;100.00
11085;BME280;5596;46.826;8.650;2023-03-14T08:46:05;94709.31;;;9.28;100.00
11085;BME280;5596;46.826;8.650;2023-03-14T08:48:32;94708.28;;;9.34;100.00
11085;BME280;5596;46.826;8.650;2023-03-14T08:51:04;94713.13;;;9.37;100.00
11085;BME280;5596;46.826;8.650;2023-03-14T08:53:32;94698.84;;;9.37;100.00
11085;BME280;5596;46.826;8.650;2023-03-14T08:55:59;94705.91;;;9.43;100.00
11085;BME280;5596;46.826;8.650;2023-03-14T08:58:28;94716.47;;;9.60;100.00
11085;BME280;5596;46.826;8.650;2023-03-14T09:00:55;94705.94;;;9.58;100.00
11085;BME280;5596;46.826;8.650;2023-03-14T09:03:22;94699.75;;;9.63;100.00
11085;BME280;5596;46.826;8.650;2023-03-14T09:05:49;94698.97;;;9.67;100.00
11085;BME280;5596;46.826;8.650;2023-03-14T09:08:17;94707.31;;;9.66;100.00
11085;BME280;5596;46.826;8.650;2023-03-14T09:10:44;94721.69;;;9.86;100.00
11085;BME280;5596;46.826;8.650;2023-03-14T09:13:13;94736.53;;;9.94;100.00
11085;BME280;5596;46.826;8.650;2023-03-14T09:15:42;94716.84;;;9.94;100.00
11085;BME280;5596;46.826;8.650;2023-03-14T09:18:09;94734.13;;;10.08;100.00
11085;BME280;5596;46.826;8.650;2023-03-14T09:20:36;94735.00;;;10.23;100.00
11085;BME280;5596;46.826;8.650;2023-03-14T09:23:03;94743.63;;;10.26;100.00
11085;BME280;5596;46.826;8.650;2023-03-14T09:25:31;94736.63;;;10.19;100.00
11085;BME280;5596;46.826;8.650;2023-03-14T09:27:58;94745.28;;;10.37;100.00
11085;BME280;5596;46.826;8.650;2023-03-14T09:30:25;94753.66;;;10.50;100.00
11085;BME280;5596;46.826;8.650;2023-03-14T09:32:54;94754.19;;;10.47;100.00
11085;BME280;5596;46.826;8.650;2023-03-14T09:35:22;94759.59;;;10.37;100.00
11085;BME280;5596;46.826;8.650;2023-03-14T09:37:49;94760.09;;;10.24;100.00
11085;BME280;5596;46.826;8.650;2023-03-14T09:40:18;94749.84;;;10.31;100.00
11085;BME280;5596;46.826;8.650;2023-03-14T09:42:47;94740.69;;;10.42;100.00
11085;BME280;5596;46.826;8.650;2023-03-14T09:45:23;94751.50;;;10.52;100.00
11085;BME280;5596;46.826;8.650;2023-03-14T09:47:55;94767.16;;;10.55;100.00
11085;BME280;5596;46.826;8.650;2023-03-14T09:50:23;94773.63;;;10.49;100.00
11085;BME280;5596;46.826;8.650;2023-03-14T09:52:56;94770.38;;;10.47;100.00
11085;BME280;5596;46.826;8.650;2023-03-14T09:55:26;94800.91;;;10.53;100.00
11085;BME280;5596;46.826;8.650;2023-03-14T09:57:57;94786.81;;;10.41;100.00
11085;BME280;5596;46.826;8.650;2023-03-14T10:00:28;94792.22;;;10.36;100.00
11085;BME280;5596;46.826;8.650;2023-03-14T10:03:00;94809.75;;;10.33;100.00
11085;BME280;5596;46.826;8.650;2023-03-14T10:05:32;94804.56;;;10.21;100.00
11085;BME280;5596;46.826;8.650;2023-03-14T10:07:59;94803.25;;;10.24;100.00
11085;BME280;5596;46.826;8.650;2023-03-14T10:10:27;94808.63;;;10.24;100.00
11085;BME280;5596;46.826;8.650;2023-03-14T10:12:58;94811.84;;;10.21;100.00
11085;BME280;5596;46.826;8.650;2023-03-14T10:15:28;94808.63;;;10.19;100.00
11085;BME280;5596;46.826;8.650;2023-03-14T10:18:00;94813.16;;;10.08;100.00
11085;BME280;5596;46.826;8.650;2023-03-14T10:20:31;94817.19;;;10.06;100.00
11085;BME280;5596;46.826;8.650;2023-03-14T10:23:02;94823.06;;;9.98;100.00
11085;BME280;5596;46.826;8.650;2023-03-14T10:25:31;94809.03;;;9.91;100.00
11085;BME280;5596;46.826;8.650;2023-03-14T10:27:59;94814.97;;;9.93;100.00
11085;BME280;5596;46.826;8.650;2023-03-14T10:30:44;94813.59;;;9.85;100.00
11085;BME280;5596;46.826;8.650;2023-03-14T10:33:20;94816.31;;;9.90;100.00
11085;BME280;5596;46.826;8.650;2023-03-14T10:35:53;94820.31;;;9.87;100.00
11085;BME280;5596;46.826;8.650;2023-03-14T10:38:23;94817.28;;;9.69;100.00
11085;BME280;5596;46.826;8.650;2023-03-14T10:40:52;94830.97;;;9.57;100.00
11085;BME280;5596;46.826;8.650;2023-03-14T10:43:23;94818.88;;;9.60;100.00
11085;BME280;5596;46.826;8.650;2023-03-14T10:45:54;94829.97;;;9.73;100.00
11085;BME280;5596;46.826;8.650;2023-03-14T10:48:30;94830.53;;;9.80;100.00
11085;BME280;5596;46.826;8.650;2023-03-14T10:51:06;94827.91;;;9.96;100.00
11085;BME280;5596;46.826;8.650;2023-03-14T10:53:42;94834.47;;;10.15;100.00
11085;BME280;5596;46.826;8.650;2023-03-14T10:56:13;94854.53;;;10.39;100.00
11085;BME280;5596;46.826;8.650;2023-03-14T10:58:43;94872.34;;;10.35;100.00
11085;BME280;5596;46.826;8.650;2023-03-14T11:01:36;94861.81;;;10.29;100.00
11085;BME280;5596;46.826;8.650;2023-03-14T11:04:14;94852.53;;;10.14;100.00
11085;BME280;5596;46.826;8.650;2023-03-14T11:06:51;94867.84;;;10.04;100.00
11085;BME280;5596;46.826;8.650;2023-03-14T11:09:30;94862.88;;;9.75;100.00
11085;BME280;5596;46.826;8.650;2023-03-14T11:12:03;94869.66;;;9.83;100.00
11085;BME280;5596;46.826;8.650;2023-03-14T11:14:43;94872.84;;;9.80;100.00
11085;BME280;5596;46.826;8.650;2023-03-14T11:17:18;94899.00;;;9.79;100.00
11085;BME280;5596;46.826;8.650;2023-03-14T11:19:56;94894.22;;;9.86;100.00
11085;BME280;5596;46.826;8.650;2023-03-14T11:22:37;94891.53;;;9.86;100.00
11085;BME280;5596;46.826;8.650;2023-03-14T11:25:15;94889.09;;;9.90;100.00
11085;BME280;5596;46.826;8.650;2023-03-14T11:27:48;94904.44;;;9.84;100.00
11085;BME280;5596;46.826;8.650;2023-03-14T11:30:27;94918.34;;;9.71;100.00
11085;BME280;5596;46.826;8.650;2023-03-14T11:33:03;94904.03;;;9.66;100.00
11085;BME280;5596;46.826;8.650;2023-03-14T11:35:36;94904.28;;;9.59;100.00
11085;BME280;5596;46.826;8.650;2023-03-14T11:38:18;94919.16;;;9.67;100.00
11085;BME280;5596;46.826;8.650;2023-03-14T11:40:48;94932.63;;;9.67;100.00
11085;BME280;5596;46.826;8.650;2023-03-14T11:43:20;94926.94;;;9.63;100.00
11085;BME280;5596;46.826;8.650;2023-03-14T11:45:50;94938.75;;;9.57;100.00
11085;BME280;5596;46.826;8.650;2023-03-14T11:48:27;94933.34;;;9.57;100.00
11085;BME280;5596;46.826;8.650;2023-03-14T11:50:57;94940.06;;;9.55;100.00
11085;BME280;5596;46.826;8.650;2023-03-14T11:56:32;94949.06;;;9.33;100.00
11085;BME280;5596;46.826;8.650;2023-03-14T11:59:04;94953.66;;;9.38;100.00
11085;BME280;5596;46.826;8.650;2023-03-14T12:01:40;94953.88;;;9.31;100.00
11085;BME280;5596;46.826;8.650;2023-03-14T12:04:20;94966.03;;;9.34;100.00
11085;BME280;5596;46.826;8.650;2023-03-14T12:06:51;94967.91;;;9.33;100.00
11085;BME280;5596;46.826;8.650;2023-03-14T12:09:20;94966.31;;;9.37;100.00
11085;BME280;5596;46.826;8.650;2023-03-14T12:11:53;94973.78;;;9.25;100.00
11085;BME280;5596;46.826;8.650;2023-03-14T12:14:25;94966.19;;;9.22;100.00
11085;BME280;5596;46.826;8.650;2023-03-14T12:16:55;94977.00;;;9.27;100.00
11085;BME280;5596;46.826;8.650;2023-03-14T12:19:32;94985.72;;;9.34;100.00
11085;BME280;5596;46.826;8.650;2023-03-14T12:22:22;94982.13;;;9.29;100.00
11085;BME280;5596;46.826;8.650;2023-03-14T12:24:53;94980.16;;;9.19;100.00
11085;BME280;5596;46.826;8.650;2023-03-14T12:27:45;95010.88;;;9.18;100.00
11085;BME280;5596;46.826;8.650;2023-03-14T12:30:23;95014.75;;;9.05;100.00
11085;BME280;5596;46.826;8.650;2023-03-14T12:33:29;95021.97;;;9.00;100.00
11085;BME280;5596;46.826;8.650;2023-03-14T12:35:59;95022.47;;;8.97;100.00
11085;BME280;5596;46.826;8.650;2023-03-14T12:38:41;95025.97;;;8.97;100.00
11085;BME280;5596;46.826;8.650;2023-03-14T12:41:14;95029.44;;;8.93;100.00
11085;BME280;5596;46.826;8.650;2023-03-14T12:43:42;95028.78;;;8.86;100.00
11085;BME280;5596;46.826;8.650;2023-03-14T12:46:19;95041.44;;;8.85;100.00
11085;BME280;5596;46.826;8.650;2023-03-14T12:48:49;95045.22;;;8.84;100.00
11085;BME280;5596;46.826;8.650;2023-03-14T12:51:19;95049.28;;;8.87;100.00
11085;BME280;5596;46.826;8.650;2023-03-14T12:54:08;95040.91;;;8.83;100.00
11085;BME280;5596;46.826;8.650;2023-03-14T12:57:13;95041.72;;;8.84;100.00
11085;BME280;5596;46.826;8.650;2023-03-14T12:59:50;95037.19;;;8.89;100.00
11085;BME280;5596;46.826;8.650;2023-03-14T13:02:24;95043.75;;;8.98;100.00
11085;BME280;5596;46.826;8.650;2023-03-14T13:04:59;95041.69;;;9.05;100.00
11085;BME280;5596;46.826;8.650;2023-03-14T13:08:05;95038.88;;;8.95;100.00
11085;BME280;5596;46.826;8.650;2023-03-14T13:10:42;95046.91;;;8.90;100.00
11085;BME280;5596;46.826;8.650;2023-03-14T13:13:19;95050.47;;;8.96;100.00
11085;BME280;5596;46.826;8.650;2023-03-14T13:15:48;95066.13;;;8.99;100.00
11085;BME280;5596;46.826;8.650;2023-03-14T13:18:19;95082.56;;;9.02;100.00
11085;BME280;5596;46.826;8.650;2023-03-14T13:20:53;95100.06;;;9.00;100.00
11085;BME280;5596;46.826;8.650;2023-03-14T13:23:21;95126.03;;;8.89;100.00
11085;BME280;5596;46.826;8.650;2023-03-14T13:25:50;95138.09;;;8.87;100.00
11085;BME280;5596;46.826;8.650;2023-03-14T13:28:18;95153.03;;;8.78;100.00
11085;BME280;5596;46.826;8.650;2023-03-14T13:30:47;95152.59;;;8.64;100.00
11085;BME280;5596;46.826;8.650;2023-03-14T13:33:16;95162.06;;;8.66;100.00
11085;BME280;5596;46.826;8.650;2023-03-14T13:35:45;95168.97;;;8.62;100.00
11085;BME280;5596;46.826;8.650;2023-03-14T13:38:18;95164.06;;;8.59;100.00
11085;BME280;5596;46.826;8.650;2023-03-14T13:40:47;95167.44;;;8.66;100.00
11085;BME280;5596;46.826;8.650;2023-03-14T13:43:18;95161.50;;;8.48;100.00